Time;durP1;ratioP1;P1;durP2;ratioP2;P2;SDS_P1;SDS_P2;PMS_P1;PMS_P2;Temp;Humidity;BMP_temperature;BMP_pressure;BME280_temperature;BME280_humidity;BME280_pressure;Samples;Min_cycle;Max_cycle;Signal;HPM_P1;HPM_P2
2023/03/25 00:01:07;;;;;;;19.10;9.40;;;;;;;12.98;57.39;98041.98;109423;1247;95861;-75
2023/03/25 00:03:40;;;;;;;19.80;9.50;;;;;;;12.97;57.36;98042.00;109107;1247;111675;-76
2023/03/25 00:06:09;;;;;;;19.00;9.60;;;;;;;12.97;57.41;98043.80;109372;1247;100551;-75
2023/03/25 00:08:36;;;;;;;18.90;9.90;;;;;;;12.96;57.63;98043.34;109129;1247;106584;-76
2023/03/25 00:11:04;;;;;;;20.00;9.80;;;;;;;12.97;57.71;98043.64;109144;1248;95625;-76
2023/03/25 00:13:30;;;;;;;19.70;10.60;;;;;;;12.97;57.67;98045.07;109051;1249;96751;-75
2023/03/25 00:15:57;;;;;;;19.20;9.20;;;;;;;12.96;57.58;98044.05;108999;1247;95772;-75
2023/03/25 00:18:34;;;;;;;20.00;9.50;;;;;;;12.94;57.59;98041.17;109337;1247;95667;-76
2023/03/25 00:21:02;;;;;;;19.40;9.40;;;;;;;12.93;57.80;98040.94;109016;1248;107056;-76
2023/03/25 00:23:30;;;;;;;20.50;9.70;;;;;;;12.92;57.74;98042.02;109073;1248;95600;-75
2023/03/25 00:26:00;;;;;;;19.80;9.40;;;;;;;12.90;57.99;98037.52;109024;1247;95664;-75
2023/03/25 00:28:29;;;;;;;21.50;10.60;;;;;;;12.89;58.01;98037.31;109103;1248;111059;-76
2023/03/25 00:31:05;;;;;;;18.80;10.10;;;;;;;12.86;58.29;98034.89;109018;1247;100896;-75
2023/03/25 00:33:32;;;;;;;20.10;10.40;;;;;;;12.82;58.38;98029.25;109192;1247;107639;-76
2023/03/25 00:35:58;;;;;;;24.20;13.20;;;;;;;12.79;58.29;98025.46;109361;1247;96023;-75
2023/03/25 00:38:32;;;;;;;23.80;13.30;;;;;;;12.78;58.34;98017.02;109211;1248;95735;-76
2023/03/25 00:41:11;;;;;;;25.40;12.20;;;;;;;12.77;58.29;98014.45;109335;1246;110689;-75
2023/03/25 00:43:39;;;;;;;20.90;10.40;;;;;;;12.74;58.34;98010.68;109207;1248;100176;-75
2023/03/25 00:46:05;;;;;;;18.70;9.60;;;;;;;12.71;58.38;98007.61;109339;1251;107136;-75
2023/03/25 00:48:32;;;;;;;18.30;8.90;;;;;;;12.67;58.76;98004.55;109283;1247;95671;-76
2023/03/25 00:51:05;;;;;;;17.80;8.50;;;;;;;12.64;58.69;97993.84;109339;1247;95570;-76
2023/03/25 00:53:33;;;;;;;18.10;9.40;;;;;;;12.61;58.76;97994.12;109315;1247;110976;-75
2023/03/25 00:56:00;;;;;;;17.70;9.00;;;;;;;12.58;58.80;97992.45;109304;1247;95576;-75
2023/03/25 00:58:28;;;;;;;19.20;9.90;;;;;;;12.54;58.86;97990.35;109314;1247;95631;-76
2023/03/25 01:00:58;;;;;;;16.80;8.30;;;;;;;12.51;59.08;97992.98;109171;1247;95651;-76
2023/03/25 01:03:27;;;;;;;16.60;8.70;;;;;;;12.46;59.07;97988.59;109401;1246;95572;-76
2023/03/25 01:05:56;;;;;;;17.10;8.60;;;;;;;12.43;58.93;97984.84;109372;1247;110345;-76
2023/03/25 01:08:24;;;;;;;18.90;8.30;;;;;;;12.40;59.19;97980.84;109148;1247;100859;-76
2023/03/25 01:10:54;;;;;;;19.60;9.50;;;;;;;12.36;59.22;97982.83;109352;1247;95633;-75
2023/03/25 01:13:22;;;;;;;17.40;8.60;;;;;;;12.33;59.28;97977.80;109289;1247;95547;-76
2023/03/25 01:15:48;;;;;;;16.80;8.80;;;;;;;12.30;59.28;97984.63;109103;1247;95668;-75
2023/03/25 01:18:16;;;;;;;18.20;8.90;;;;;;;12.30;59.42;97985.00;109124;1247;95666;-76
2023/03/25 01:20:43;;;;;;;18.80;9.20;;;;;;;12.31;59.43;97983.37;109331;1247;95628;-75
2023/03/25 01:23:10;;;;;;;17.10;8.80;;;;;;;12.31;59.54;97980.98;109318;1250;95612;-75
2023/03/25 01:25:37;;;;;;;19.60;9.40;;;;;;;12.32;59.65;97974.31;109171;1248;95875;-75
2023/03/25 01:28:04;;;;;;;23.00;11.10;;;;;;;12.34;59.64;97976.51;109285;1247;95699;-75
2023/03/25 01:30:31;;;;;;;24.40;11.80;;;;;;;12.34;59.75;97970.73;109176;1250;95709;-75
2023/03/25 01:32:57;;;;;;;19.40;10.30;;;;;;;12.35;59.94;97970.02;109104;1247;96565;-75
2023/03/25 01:35:25;;;;;;;19.20;9.30;;;;;;;12.35;60.00;97964.59;109315;1246;95581;-75
2023/03/25 01:37:53;;;;;;;17.80;8.70;;;;;;;12.34;60.05;97959.04;109206;1248;95636;-75
2023/03/25 01:40:22;;;;;;;16.30;8.20;;;;;;;12.34;60.09;97954.97;109314;1247;109762;-76
2023/03/25 01:42:49;;;;;;;18.00;9.10;;;;;;;12.33;60.12;97958.40;109192;1248;99468;-75
2023/03/25 01:45:21;;;;;;;19.60;9.30;;;;;;;12.33;60.11;97952.95;109284;1247;95574;-76
2023/03/25 01:47:55;;;;;;;17.10;8.30;;;;;;;12.32;60.18;97953.15;109182;1247;95634;-76
2023/03/25 01:50:21;;;;;;;18.20;8.50;;;;;;;12.33;60.29;97954.00;109287;1247;95809;-76
2023/03/25 01:52:50;;;;;;;16.40;8.50;;;;;;;12.33;60.29;97953.63;109369;1247;95906;-76
2023/03/25 01:55:23;;;;;;;16.80;8.30;;;;;;;12.33;60.29;97953.13;109330;1247;101084;-76
2023/03/25 01:57:54;;;;;;;16.30;8.40;;;;;;;12.32;60.32;97952.62;109161;1248;107687;-75
2023/03/25 02:00:21;;;;;;;18.80;8.90;;;;;;;12.32;60.47;97949.67;109168;1247;95615;-75
2023/03/25 02:02:49;;;;;;;18.30;8.40;;;;;;;12.32;60.46;97948.94;109010;1248;96878;-75
2023/03/25 02:05:24;;;;;;;18.60;9.10;;;;;;;12.32;60.51;97948.21;109174;1248;111380;-76
2023/03/25 02:07:51;;;;;;;18.90;9.10;;;;;;;12.31;60.71;97942.07;109094;1247;100831;-75
2023/03/25 02:10:18;;;;;;;17.60;8.50;;;;;;;12.31;60.64;97939.43;109011;1247;95707;-75
2023/03/25 02:12:45;;;;;;;15.40;7.80;;;;;;;12.30;60.77;97945.59;109285;1247;95574;-75
2023/03/25 02:15:16;;;;;;;15.90;7.80;;;;;;;12.29;60.63;97939.79;109289;1248;95819;-75
2023/03/25 02:17:52;;;;;;;16.50;8.30;;;;;;;12.28;60.64;97940.94;109166;1247;111295;-76
2023/03/25 02:20:38;;;;;;;16.40;7.80;;;;;;;12.27;60.76;97942.48;109351;1247;101058;-76
2023/03/25 02:23:20;;;;;;;15.40;7.70;;;;;;;12.26;60.82;97942.11;109369;1247;107176;-75
2023/03/25 02:26:28;;;;;;;18.20;8.20;;;;;;;12.22;60.80;97939.88;109343;1251;95597;-75
2023/03/25 02:29:06;;;;;;;15.90;6.80;;;;;;;12.17;60.94;97935.83;108961;1253;95764;-76
2023/03/25 02:32:01;;;;;;;15.90;8.20;;;;;;;12.12;61.02;97929.57;109232;1248;111026;-76
2023/03/25 02:34:45;;;;;;;14.90;7.60;;;;;;;12.05;60.90;97926.79;109154;1247;100765;-76
2023/03/25 02:37:27;;;;;;;14.20;7.00;;;;;;;11.99;61.07;97927.92;109361;1247;107621;-76
2023/03/25 02:40:05;;;;;;;17.70;9.10;;;;;;;11.93;61.08;97924.95;109297;1247;95588;-75
2023/03/25 02:42:50;;;;;;;15.80;8.00;;;;;;;11.87;61.10;97922.96;109145;1247;96024;-75
2023/03/25 02:45:31;;;;;;;15.30;8.20;;;;;;;11.83;61.21;97923.74;109280;1247;111310;-76
2023/03/25 02:48:04;;;;;;;16.80;8.00;;;;;;;11.80;61.21;97921.19;109363;1247;100908;-76
2023/03/25 02:50:50;;;;;;;17.50;8.60;;;;;;;11.79;61.38;97919.77;109093;1248;107637;-75
2023/03/25 02:53:26;;;;;;;18.20;8.40;;;;;;;11.77;61.43;97922.68;109317;1247;95577;-76
2023/03/25 02:55:58;;;;;;;18.10;8.30;;;;;;;11.79;61.46;97923.10;108979;1247;95641;-75
2023/03/25 02:58:28;;;;;;;17.40;8.40;;;;;;;11.80;61.56;97922.77;109202;1248;111411;-75
2023/03/25 03:00:57;;;;;;;17.10;8.40;;;;;;;11.83;61.59;97921.41;109078;1246;101041;-75
2023/03/25 03:03:27;;;;;;;19.00;8.60;;;;;;;11.86;61.57;97920.81;109326;1247;107873;-75
2023/03/25 03:06:01;;;;;;;17.80;8.90;;;;;;;11.89;61.62;97922.11;109071;1248;95567;-75
2023/03/25 03:08:46;;;;;;;17.40;8.00;;;;;;;11.93;61.68;97920.33;109055;1247;96129;-75
2023/03/25 03:11:36;;;;;;;16.90;8.80;;;;;;;11.97;61.75;97919.45;109368;1246;110899;-75
2023/03/25 03:14:21;;;;;;;16.30;8.20;;;;;;;11.99;61.89;97919.75;109063;1248;101152;-75
2023/03/25 03:17:07;;;;;;;16.50;8.60;;;;;;;12.02;61.91;97918.04;109271;1247;105571;-75
2023/03/25 03:19:40;;;;;;;16.60;8.30;;;;;;;12.04;61.97;97919.05;109312;1247;95758;-75
2023/03/25 03:22:37;;;;;;;17.30;8.60;;;;;;;12.06;61.96;97920.83;109340;1247;95622;-75
2023/03/25 03:25:18;;;;;;;16.00;7.30;;;;;;;12.08;62.02;97917.46;109128;1247;111338;-76
2023/03/25 03:27:53;;;;;;;18.30;8.70;;;;;;;12.10;62.02;97921.52;109382;1247;100661;-76
2023/03/25 03:30:45;;;;;;;18.00;8.00;;;;;;;12.12;61.97;97917.47;109147;1249;107628;-76
2023/03/25 03:33:24;;;;;;;15.40;7.50;;;;;;;12.13;62.13;97923.89;109137;1247;95759;-76
2023/03/25 03:36:03;;;;;;;17.60;8.00;;;;;;;12.14;62.14;97925.56;109053;1248;95579;-76
2023/03/25 03:38:36;;;;;;;14.80;7.60;;;;;;;12.16;62.24;97927.19;109346;1247;110416;-75
2023/03/25 03:41:09;;;;;;;15.80;8.00;;;;;;;12.16;62.23;97926.85;109321;1247;100570;-76
2023/03/25 03:43:42;;;;;;;;;;;;;;;12.17;62.27;97925.69;109124;1247;107702;-76
2023/03/25 03:46:23;;;;;;;15.10;7.70;;;;;;;12.16;62.33;97933.77;109334;1247;96086;-76
2023/03/25 03:48:56;;;;;;;17.10;8.00;;;;;;;12.17;62.45;97936.02;109367;1247;95644;-76
2023/03/25 03:51:29;;;;;;;18.00;8.40;;;;;;;12.16;62.26;97936.58;109170;1247;112404;-76
2023/03/25 03:54:01;;;;;;;16.80;8.10;;;;;;;12.17;62.26;97943.27;109171;1247;100921;-76
2023/03/25 03:56:35;;;;;;;18.10;7.90;;;;;;;12.17;62.38;97945.53;109316;1247;108338;-76
2023/03/25 03:59:13;;;;;;;14.40;7.10;;;;;;;12.18;62.36;97949.77;109105;1248;95639;-76
2023/03/25 04:01:46;;;;;;;16.20;7.60;;;;;;;12.18;62.45;97961.14;109114;1247;95972;-76
2023/03/25 04:04:21;;;;;;;14.10;6.90;;;;;;;12.16;62.36;97958.69;109099;1248;111476;-75
2023/03/25 04:07:09;;;;;;;14.60;6.90;;;;;;;12.15;62.86;97965.48;108995;1248;100105;-76
2023/03/25 04:09:53;;;;;;;14.90;7.00;;;;;;;12.13;63.35;97967.80;109168;1248;107470;-75
2023/03/25 04:12:32;;;;;;;15.10;6.70;;;;;;;12.11;63.85;97970.81;109285;1247;95604;-75
2023/03/25 04:15:05;;;;;;;15.20;6.90;;;;;;;12.10;64.49;97970.64;109292;1247;95622;-75
2023/03/25 04:17:34;;;;;;;13.40;6.60;;;;;;;12.07;64.21;97973.91;109350;1247;111361;-75
2023/03/25 04:20:07;;;;;;;15.70;6.60;;;;;;;12.02;64.30;97973.64;109344;1247;100906;-75
2023/03/25 04:22:37;;;;;;;13.80;6.30;;;;;;;11.98;65.06;97970.84;109101;1247;106028;-76
2023/03/25 04:25:06;;;;;;;12.40;6.10;;;;;;;11.91;63.93;97973.75;109161;1247;95895;-76
2023/03/25 04:27:36;;;;;;;15.40;6.80;;;;;;;11.88;63.72;97976.00;109380;1247;95588;-75
2023/03/25 04:30:04;;;;;;;14.00;6.50;;;;;;;11.86;63.76;97974.04;109126;1247;110905;-76
2023/03/25 04:32:31;;;;;;;13.80;6.20;;;;;;;11.85;63.64;97976.69;109015;1246;100639;-76
2023/03/25 04:34:58;;;;;;;14.30;6.90;;;;;;;11.84;63.42;97973.23;109289;1247;96280;-75
2023/03/25 04:37:32;;;;;;;14.80;7.00;;;;;;;11.87;63.61;97975.80;109104;1247;95991;-75
2023/03/25 04:40:00;;;;;;;17.00;7.10;;;;;;;11.89;63.60;97974.70;109218;1247;95642;-75
2023/03/25 04:42:31;;;;;;;18.50;8.20;;;;;;;11.91;63.63;97976.99;109309;1247;110455;-76
2023/03/25 04:44:58;;;;;;;16.00;7.30;;;;;;;11.93;63.64;97972.80;109066;1248;99400;-76
2023/03/25 04:47:26;;;;;;;20.20;9.00;;;;;;;11.95;63.70;97977.73;109239;1247;95680;-76
2023/03/25 04:49:53;;;;;;;15.50;7.40;;;;;;;11.95;63.58;97973.39;109149;1247;95576;-76
2023/03/25 04:52:20;;;;;;;14.30;6.30;;;;;;;11.96;63.73;97976.92;109126;1253;95579;-76
2023/03/25 04:54:46;;;;;;;15.10;6.80;;;;;;;11.94;63.77;97973.73;109337;1247;95629;-76
2023/03/25 04:57:14;;;;;;;17.70;7.70;;;;;;;11.93;63.65;97972.95;109074;1250;95748;-76
2023/03/25 04:59:41;;;;;;;17.00;8.00;;;;;;;11.94;63.74;97974.80;109241;1247;96952;-75
2023/03/25 05:02:12;;;;;;;18.40;8.50;;;;;;;11.94;63.78;97975.81;109232;1247;95566;-76
2023/03/25 05:04:40;;;;;;;21.60;10.10;;;;;;;11.95;63.90;97975.98;109281;1247;95628;-76
2023/03/25 05:07:07;;;;;;;24.90;13.40;;;;;;;11.95;63.90;97977.91;109330;1247;111659;-75
2023/03/25 05:09:34;;;;;;;25.40;15.10;;;;;;;11.95;63.97;97982.48;109353;1247;95694;-75
2023/03/25 05:12:00;;;;;;;20.60;10.90;;;;;;;11.95;63.93;97984.84;109107;1248;95724;-76
2023/03/25 05:14:27;;;;;;;17.30;8.90;;;;;;;11.94;63.97;97988.99;109105;1247;95722;-76
2023/03/25 05:16:56;;;;;;;18.50;8.80;;;;;;;11.93;64.04;97986.59;109433;1247;95607;-75
2023/03/25 05:19:22;;;;;;;17.90;8.30;;;;;;;11.92;64.07;97988.44;108963;1247;100893;-76
2023/03/25 05:21:49;;;;;;;18.40;8.60;;;;;;;11.90;64.08;97989.85;109004;1247;95742;-76
2023/03/25 05:24:16;;;;;;;18.10;8.50;;;;;;;11.90;64.09;97990.94;108923;1247;95607;-76
2023/03/25 05:26:42;;;;;;;17.30;8.90;;;;;;;11.89;64.29;97995.52;108912;1247;95679;-76
2023/03/25 05:29:12;;;;;;;18.40;9.10;;;;;;;11.86;64.33;97994.49;109320;1247;96005;-75
2023/03/25 05:31:45;;;;;;;19.60;9.20;;;;;;;11.83;64.34;97996.35;109247;1247;107782;-75
2023/03/25 05:34:13;;;;;;;20.30;9.60;;;;;;;11.84;64.41;97995.20;108827;1248;95682;-75
2023/03/25 05:36:40;;;;;;;20.10;9.80;;;;;;;11.86;64.40;97991.83;109147;1247;95586;-75
2023/03/25 05:39:07;;;;;;;20.00;9.50;;;;;;;11.90;64.39;97991.24;108969;1248;95722;-76
2023/03/25 05:41:37;;;;;;;19.70;10.10;;;;;;;11.94;64.37;97994.09;109162;1247;95926;-75
2023/03/25 05:44:06;;;;;;;19.50;10.10;;;;;;;11.97;64.36;97994.19;109113;1247;106281;-75
2023/03/25 05:46:33;;;;;;;24.00;11.80;;;;;;;11.98;64.45;97989.85;108925;1247;95761;-76
2023/03/25 05:49:00;;;;;;;28.50;15.60;;;;;;;11.98;64.59;97989.81;109104;1248;96027;-76
2023/03/25 05:51:36;;;;;;;22.00;10.90;;;;;;;11.97;64.77;97993.30;109161;1247;95838;-80
2023/03/25 05:54:07;;;;;;;23.20;10.80;;;;;;;11.92;64.77;97990.95;108954;1247;99636;-76
2023/03/25 05:56:35;;;;;;;21.00;11.20;;;;;;;11.88;64.71;97992.19;109063;1248;107676;-76
2023/03/25 05:59:03;;;;;;;20.30;10.30;;;;;;;11.87;65.05;97992.86;108929;1247;95590;-75
2023/03/25 06:01:33;;;;;;;21.40;10.20;;;;;;;11.88;64.93;97993.58;109086;1247;95596;-76
2023/03/25 06:04:02;;;;;;;19.70;9.60;;;;;;;11.90;64.82;97988.62;109104;1247;111456;-76
2023/03/25 06:06:32;;;;;;;20.20;10.30;;;;;;;11.95;64.88;97988.73;108986;1247;100967;-76
2023/03/25 06:08:59;;;;;;;18.60;9.70;;;;;;;11.97;64.98;97990.61;109129;1247;108802;-77
2023/03/25 06:11:26;;;;;;;20.20;10.40;;;;;;;11.98;64.98;97985.92;108924;1247;95902;-76
2023/03/25 06:13:53;;;;;;;22.60;11.10;;;;;;;12.00;65.06;97991.77;108910;1250;95615;-76
2023/03/25 06:16:26;;;;;;;25.70;11.10;;;;;;;11.99;65.16;97990.27;109209;1247;95888;-76
2023/03/25 06:18:58;;;;;;;20.90;10.80;;;;;;;11.96;65.16;97989.89;108955;1247;100851;-76
2023/03/25 06:21:31;;;;;;;21.70;10.80;;;;;;;11.95;65.21;97989.45;109318;1247;107621;-76
2023/03/25 06:24:00;;;;;;;;;;;;;;;11.97;65.27;98001.67;108945;1247;95902;-76
2023/03/25 06:26:27;;;;;;;21.90;12.40;;;;;;;12.00;65.39;98005.13;109198;1247;95629;-76
2023/03/25 06:28:54;;;;;;;22.70;12.00;;;;;;;12.08;65.34;98004.92;109139;1247;95635;-76
2023/03/25 06:31:25;;;;;;;21.50;11.20;;;;;;;12.15;65.34;98011.87;109182;1247;95940;-75
2023/03/25 06:33:52;;;;;;;22.20;11.10;;;;;;;12.19;65.58;98018.23;109082;1248;107575;-78
2023/03/25 06:36:19;;;;;;;21.40;11.50;;;;;;;12.19;65.44;98019.46;109015;1247;95615;-76
2023/03/25 06:38:49;;;;;;;23.20;11.80;;;;;;;12.20;65.45;98020.14;109270;1247;95653;-74
2023/03/25 06:41:19;;;;;;;20.80;11.80;;;;;;;12.20;65.46;98022.92;109017;1248;110434;-77
2023/03/25 06:43:48;;;;;;;24.00;12.80;;;;;;;12.19;65.58;98025.52;108985;1247;101160;-77
2023/03/25 06:46:15;;;;;;;25.20;13.30;;;;;;;12.12;65.70;98027.27;109004;1247;107163;-76
2023/03/25 06:48:42;;;;;;;22.30;13.40;;;;;;;12.05;65.82;98032.70;109020;1247;95916;-75
2023/03/25 06:51:10;;;;;;;23.50;12.10;;;;;;;12.01;65.88;98033.26;108971;1253;95662;-75
2023/03/25 06:53:37;;;;;;;22.00;12.50;;;;;;;11.97;66.11;98036.31;108875;1247;95922;-75
2023/03/25 06:56:04;;;;;;;24.20;13.90;;;;;;;11.92;66.17;98030.54;108945;1248;95797;-76
2023/03/25 06:58:33;;;;;;;23.80;14.10;;;;;;;11.91;65.91;98034.00;109069;1247;95769;-76
2023/03/25 07:01:04;;;;;;;26.20;15.00;;;;;;;11.92;66.02;98036.95;109085;1248;95651;-75
2023/03/25 07:03:35;;;;;;;26.80;15.70;;;;;;;11.95;65.88;98041.84;109046;1247;95652;-75
2023/03/25 07:06:05;;;;;;;29.10;15.60;;;;;;;11.97;66.11;98038.94;108990;1255;112431;-75
2023/03/25 07:08:32;;;;;;;27.50;15.50;;;;;;;11.98;66.18;98036.92;109299;1247;101127;-75
2023/03/25 07:11:04;;;;;;;25.20;13.70;;;;;;;11.99;66.50;98039.88;109023;1248;95670;-75
2023/03/25 07:13:30;;;;;;;22.80;11.80;;;;;;;11.99;66.58;98043.23;109037;1250;95644;-75
2023/03/25 07:15:58;;;;;;;20.40;11.10;;;;;;;11.97;66.81;98046.95;109253;1248;95709;-75
2023/03/25 07:18:25;;;;;;;21.00;10.50;;;;;;;11.93;67.63;98052.81;108936;1255;95656;-74
2023/03/25 07:20:51;;;;;;;20.50;10.40;;;;;;;11.86;67.31;98059.34;109248;1248;95842;-75
2023/03/25 07:23:18;;;;;;;22.50;10.70;;;;;;;11.81;67.07;98058.46;109293;1250;95990;-76
2023/03/25 07:25:45;;;;;;;19.70;9.30;;;;;;;11.77;67.16;98058.45;109118;1250;96144;-74
2023/03/25 07:28:12;;;;;;;20.00;10.40;;;;;;;11.75;67.91;98061.58;109146;1248;95668;-74
2023/03/25 07:30:39;;;;;;;20.00;10.00;;;;;;;11.72;67.16;98066.11;109153;1248;96131;-74
2023/03/25 07:33:06;;;;;;;19.30;9.50;;;;;;;11.71;67.96;98067.14;109306;1252;106698;-75
2023/03/25 07:35:33;;;;;;;21.10;9.60;;;;;;;11.68;67.84;98075.64;108969;1248;96045;-74
2023/03/25 07:38:00;;;;;;;19.10;8.90;;;;;;;11.62;68.05;98075.60;109083;1248;95650;-75
2023/03/25 07:40:30;;;;;;;18.20;9.50;;;;;;;11.62;67.63;98079.69;109238;1253;95622;-79
2023/03/25 07:43:04;;;;;;;18.80;9.20;;;;;;;11.64;67.31;98080.22;108959;1250;101261;-76
2023/03/25 07:45:31;;;;;;;20.30;9.40;;;;;;;11.63;68.14;98084.20;109042;1248;95617;-78
2023/03/25 07:48:15;;;;;;;19.40;9.50;;;;;;;11.59;68.18;98083.55;109231;1250;95626;-74
2023/03/25 07:50:45;;;;;;;18.60;9.00;;;;;;;11.53;68.53;98089.91;109231;1251;95770;-75
2023/03/25 07:53:12;;;;;;;20.50;9.70;;;;;;;11.47;68.42;98089.93;109232;1253;111262;-75
2023/03/25 07:55:49;;;;;;;18.60;8.60;;;;;;;11.42;68.95;98092.70;109258;1251;95911;-75
2023/03/25 07:58:18;;;;;;;17.70;8.60;;;;;;;11.39;68.47;98093.85;108932;1248;108725;-75
2023/03/25 08:00:47;;;;;;;18.20;8.90;;;;;;;11.40;67.92;98093.98;108913;1248;95641;-74
2023/03/25 08:03:16;;;;;;;20.80;9.50;;;;;;;11.42;67.76;98093.03;109050;1248;95621;-75
2023/03/25 08:05:47;;;;;;;20.50;9.20;;;;;;;11.45;67.72;98092.55;109090;1247;111434;-74
2023/03/25 08:08:16;;;;;;;18.30;8.20;;;;;;;11.47;67.96;98093.31;109052;1247;100866;-72
2023/03/25 08:10:46;;;;;;;19.00;8.10;;;;;;;11.46;67.83;98090.53;108888;1248;107391;-72
2023/03/25 08:13:14;;;;;;;15.90;8.00;;;;;;;11.44;68.21;98091.11;108985;1249;95646;-73
2023/03/25 08:15:41;;;;;;;17.80;7.90;;;;;;;11.39;68.45;98089.61;108958;1248;96075;-76
2023/03/25 08:18:07;;;;;;;19.00;7.60;;;;;;;11.35;68.14;98089.14;108786;1248;96018;-75
2023/03/25 08:20:35;;;;;;;17.50;8.00;;;;;;;11.32;67.76;98089.03;109089;1248;95622;-74
2023/03/25 08:23:02;;;;;;;17.50;7.70;;;;;;;11.36;67.52;98090.10;109155;1248;95915;-75
2023/03/25 08:25:30;;;;;;;18.80;8.90;;;;;;;11.35;67.64;98096.52;109145;1251;95629;-74
2023/03/25 08:27:57;;;;;;;14.50;6.40;;;;;;;11.32;67.95;98098.25;109044;1248;96076;-75
2023/03/25 08:30:24;;;;;;;15.40;6.70;;;;;;;11.24;67.77;98099.08;108945;1248;95687;-75
2023/03/25 08:32:53;;;;;;;12.90;5.60;;;;;;;11.21;67.59;98099.59;109158;1248;95795;-75
2023/03/25 08:35:23;;;;;;;12.60;5.90;;;;;;;11.21;67.47;98101.02;108853;1248;108109;-74
2023/03/25 08:37:50;;;;;;;15.00;6.50;;;;;;;11.21;67.76;98098.89;109094;1248;95565;-74
2023/03/25 08:40:18;;;;;;;12.50;5.40;;;;;;;11.19;67.45;98097.80;108912;1248;95708;-75
2023/03/25 08:42:47;;;;;;;12.30;5.20;;;;;;;11.21;67.54;98101.48;108965;1253;111266;-75
2023/03/25 08:45:15;;;;;;;13.30;5.80;;;;;;;11.21;67.46;98101.67;108932;1248;95967;-74
2023/03/25 08:47:42;;;;;;;12.40;5.50;;;;;;;11.25;67.45;98101.14;109242;1248;108486;-74
2023/03/25 08:50:10;;;;;;;11.10;5.30;;;;;;;11.29;67.50;98099.73;108912;1255;95669;-75
2023/03/25 08:52:40;;;;;;;14.50;6.60;;;;;;;11.32;67.59;98096.59;109258;1248;95649;-75
2023/03/25 08:55:07;;;;;;;10.70;5.20;;;;;;;11.36;67.54;98096.83;109226;1252;109832;-75
2023/03/25 08:57:38;;;;;;;11.40;5.30;;;;;;;11.38;67.63;98097.38;108821;1247;199043;-76
2023/03/25 09:00:12;;;;;;;13.50;5.40;;;;;;;11.35;67.64;98101.48;109047;1248;95630;-75
2023/03/25 09:02:44;;;;;;;11.90;5.50;;;;;;;11.32;67.49;98101.61;108995;1247;95962;-75
2023/03/25 09:05:14;;;;;;;12.20;5.40;;;;;;;11.38;67.69;98102.33;109082;1248;95718;-75
2023/03/25 09:07:50;;;;;;;12.90;5.60;;;;;;;11.41;67.72;98101.99;108991;1254;110682;-75
2023/03/25 09:10:27;;;;;;;12.30;5.90;;;;;;;11.36;67.69;98101.45;108966;1248;101168;-75
2023/03/25 09:12:53;;;;;;;14.70;6.30;;;;;;;11.32;67.75;98100.17;109048;1248;107503;-75
2023/03/25 09:15:25;;;;;;;13.10;5.70;;;;;;;11.33;67.71;98100.66;109232;1248;95753;-75
2023/03/25 09:17:52;;;;;;;14.90;6.50;;;;;;;11.36;67.80;98102.29;109318;1247;95641;-74
2023/03/25 09:20:20;;;;;;;16.90;6.90;;;;;;;11.36;67.83;98103.38;109018;1247;111199;-75
2023/03/25 09:22:47;;;;;;;15.40;6.80;;;;;;;11.36;67.82;98099.68;109310;1248;95618;-76
2023/03/25 09:25:14;;;;;;;14.30;6.20;;;;;;;11.40;67.88;98099.69;108879;1255;96100;-76
2023/03/25 09:27:41;;;;;;;16.70;7.80;;;;;;;11.45;67.80;98100.80;108936;1247;95670;-75
2023/03/25 09:30:09;;;;;;;17.70;7.70;;;;;;;11.44;67.73;98100.12;109230;1248;95975;-76
2023/03/25 09:32:36;;;;;;;17.20;7.50;;;;;;;11.47;67.84;98101.33;108915;1248;96052;-76
2023/03/25 09:35:05;;;;;;;19.00;9.10;;;;;;;11.53;67.94;98102.35;108867;1251;100970;-74
2023/03/25 09:37:36;;;;;;;18.40;8.50;;;;;;;11.62;67.95;98098.48;109017;1248;107432;-74
2023/03/25 09:40:07;;;;;;;17.90;8.30;;;;;;;11.73;67.83;98089.55;108784;1247;95920;-82
2023/03/25 09:42:48;;;;;;;20.60;8.40;;;;;;;11.85;67.81;98092.85;109079;1248;95615;-77
2023/03/25 09:45:33;;;;;;;17.80;7.30;;;;;;;11.98;67.83;98093.94;109266;1247;111410;-79
2023/03/25 09:48:45;;;;;;;17.60;7.10;;;;;;;12.10;67.78;98095.34;108929;1247;99778;-77
2023/03/25 09:51:40;;;;;;;;;;;;;;;;;;;;;
2023/03/25 09:54:17;;;;;;;17.80;6.50;;;;;;;12.26;67.77;98092.98;108782;1248;96683;-76
2023/03/25 09:56:46;;;;;;;17.60;6.90;;;;;;;12.27;67.70;98091.60;109084;1248;96002;-77
2023/03/25 09:59:17;;;;;;;17.80;7.80;;;;;;;12.25;67.60;98095.70;109044;1248;110944;-74
2023/03/25 10:02:18;;;;;;;16.30;6.90;;;;;;;12.25;67.67;98095.17;109138;1247;100593;-81
2023/03/25 10:05:27;;;;;;;16.50;7.40;;;;;;;12.33;67.69;98086.41;109101;1248;106858;-79
2023/03/25 10:08:03;;;;;;;17.60;7.10;;;;;;;12.42;67.76;98088.62;108884;1247;95784;-79
2023/03/25 10:18:57;;;;;;;19.50;8.90;;;;;;;12.64;67.67;98087.17;108067;1257;100658;-73
2023/03/25 10:22:02;;;;;;;18.40;8.50;;;;;;;12.59;67.46;98081.41;108382;1254;106796;-74
2023/03/25 10:24:35;;;;;;;18.90;8.30;;;;;;;12.68;67.72;98081.08;108862;1247;95625;-73
2023/03/25 10:27:35;;;;;;;21.30;10.30;;;;;;;12.78;67.59;98078.22;109216;1247;96024;-72
2023/03/25 10:30:20;;;;;;;22.00;11.20;;;;;;;12.87;67.86;98073.59;109123;1248;110966;-73
2023/03/25 10:33:00;;;;;;;22.40;11.20;;;;;;;12.95;67.65;98077.22;109176;1248;100650;-73
2023/03/25 10:35:48;;;;;;;23.60;11.00;;;;;;;12.93;67.43;98081.73;108822;1247;107705;-79
2023/03/25 10:38:22;;;;;;;22.50;12.10;;;;;;;12.94;67.47;98079.45;109248;1248;96841;-81
2023/03/25 10:41:19;;;;;;;24.10;13.10;;;;;;;12.97;67.55;98081.67;108882;1250;95642;-73
2023/03/25 10:43:55;;;;;;;21.80;11.90;;;;;;;12.99;67.47;98077.56;109307;1247;111326;-75
2023/03/25 10:46:24;;;;;;;22.10;12.20;;;;;;;12.98;67.45;98075.71;109328;1248;100926;-73
2023/03/25 10:48:58;;;;;;;21.70;11.70;;;;;;;13.04;67.41;98077.85;109315;1247;107558;-73
2023/03/25 10:51:29;;;;;;;22.30;13.00;;;;;;;13.08;67.49;98077.27;108917;1248;95979;-73
2023/03/25 10:54:04;;;;;;;23.20;12.90;;;;;;;13.21;67.49;98077.23;108958;1249;95593;-74
2023/03/25 10:56:38;;;;;;;24.50;12.40;;;;;;;13.30;67.29;98070.96;109127;1247;111708;-73
2023/03/25 10:59:28;;;;;;;21.00;12.00;;;;;;;13.42;67.29;98063.80;109155;1247;100892;-73
2023/03/25 11:02:30;;;;;;;23.30;12.30;;;;;;;13.57;67.23;98061.02;109048;1247;107744;-73
2023/03/25 11:05:03;;;;;;;20.80;11.40;;;;;;;13.71;67.21;98056.27;109151;1247;95645;-74
2023/03/25 11:07:42;;;;;;;21.10;12.00;;;;;;;13.82;67.42;98052.08;109066;1248;95695;-72
2023/03/25 11:11:14;;;;;;;20.70;11.00;;;;;;;13.96;67.13;98049.42;109046;1247;110387;-73
2023/03/25 11:13:26;;;;;;;23.00;13.00;;;;;;;13.99;67.27;98047.04;109166;1247;100704;-74
2023/03/25 11:15:58;;;;;;;22.10;12.80;;;;;;;14.06;67.01;98049.98;109312;1247;107234;-74
2023/03/25 11:18:43;;;;;;;23.60;12.60;;;;;;;14.09;67.07;98048.95;109279;1247;95806;-74
2023/03/25 11:21:14;;;;;;;26.70;14.40;;;;;;;14.17;67.03;98047.42;109306;1248;95717;-73
2023/03/25 11:23:48;;;;;;;21.90;13.00;;;;;;;14.22;67.19;98038.42;108836;1248;113013;-73
2023/03/25 11:26:22;;;;;;;;;;;;;;;14.29;67.11;98038.52;109180;1247;100744;-72
2023/03/25 11:29:03;;;;;;;22.50;12.10;;;;;;;14.29;66.72;98032.29;109168;1248;105681;-72
2023/03/25 11:31:33;;;;;;;23.70;12.20;;;;;;;14.30;66.91;98028.28;108972;1248;95763;-73
2023/03/25 11:34:04;;;;;;;21.50;11.70;;;;;;;14.32;66.92;98019.50;109144;1248;95655;-78
2023/03/25 11:36:34;;;;;;;20.10;11.50;;;;;;;14.31;66.89;98019.73;109282;1247;111432;-71
2023/03/25 11:39:10;;;;;;;20.00;11.50;;;;;;;14.34;66.93;98014.25;109183;1247;102158;-76
2023/03/25 11:41:37;;;;;;;20.50;11.20;;;;;;;14.37;66.84;98013.73;109152;1247;107705;-73
2023/03/25 11:44:05;;;;;;;20.70;10.50;;;;;;;14.37;66.54;98013.77;109210;1247;96752;-71
2023/03/25 11:46:41;;;;;;;19.30;11.30;;;;;;;14.33;66.49;98004.99;108951;1247;96178;-74